sensor_id;sensor_type;location;lat;lon;timestamp;pressure;altitude;pressure_sealevel;temperature;humidity
64025;BME280;50266;57.446;26.936;2022-09-27T00:00:13;98811.05;;;5.18;100.0
64025;BME280;50266;57.446;26.936;2022-09-27T00:01:13;98814.21;;;5.18;100.0
64025;BME280;50266;57.446;26.936;2022-09-27T00:02:13;98811.84;;;5.21;100.0
64025;BME280;50266;57.446;26.936;2022-09-27T00:03:13;98812.2;;;5.24;100.0
64025;BME280;50266;57.446;26.936;2022-09-27T00:04:13;98814.77;;;5.28;100.0
64025;BME280;50266;57.446;26.936;2022-09-27T00:05:13;98814.57;;;5.24;100.0
64025;BME280;50266;57.446;26.936;2022-09-27T00:06:24;98817.31;;;5.26;100.0
64025;BME280;50266;57.446;26.936;2022-09-27T00:07:15;98811.51;;;5.18;100.0
64025;BME280;50266;57.446;26.936;2022-09-27T00:08:15;98812.56;;;5.18;100.0
64025;BME280;50266;57.446;26.936;2022-09-27T00:09:15;98814.15;;;5.21;100.0
64025;BME280;50266;57.446;26.936;2022-09-27T00:10:15;98811.48;;;5.23;100.0
64025;BME280;50266;57.446;26.936;2022-09-27T00:11:26;98809.09;;;5.16;100.0
64025;BME280;50266;57.446;26.936;2022-09-27T00:12:17;98813.17;;;5.14;100.0
64025;BME280;50266;57.446;26.936;2022-09-27T00:13:17;98812.06;;;5.13;100.0
64025;BME280;50266;57.446;26.936;2022-09-27T00:14:17;98810.2;;;5.12;100.0
64025;BME280;50266;57.446;26.936;2022-09-27T00:15:17;98809.45;;;5.14;100.0
64025;BME280;50266;57.446;26.936;2022-09-27T00:16:17;98809.05;;;5.09;100.0
64025;BME280;50266;57.446;26.936;2022-09-27T00:17:17;98811.55;;;5.09;100.0
64025;BME280;50266;57.446;26.936;2022-09-27T00:18:17;98811.43;;;5.08;100.0
64025;BME280;50266;57.446;26.936;2022-09-27T00:19:18;98808.34;;;5.07;100.0
64025;BME280;50266;57.446;26.936;2022-09-27T00:20:17;98806.5;;;5.04;100.0
64025;BME280;50266;57.446;26.936;2022-09-27T00:21:17;98809.53;;;4.98;100.0
64025;BME280;50266;57.446;26.936;2022-09-27T00:22:17;98805.84;;;4.98;100.0
64025;BME280;50266;57.446;26.936;2022-09-27T00:23:17;98805.59;;;5.0;100.0
64025;BME280;50266;57.446;26.936;2022-09-27T00:24:18;98811.62;;;4.96;100.0
64025;BME280;50266;57.446;26.936;2022-09-27T00:25:17;98805.53;;;4.96;100.0
64025;BME280;50266;57.446;26.936;2022-09-27T00:26:17;98801.02;;;4.97;100.0
64025;BME280;50266;57.446;26.936;2022-09-27T00:27:17;98806.33;;;4.95;100.0
64025;BME280;50266;57.446;26.936;2022-09-27T00:28:17;98803.2;;;4.95;100.0
64025;BME280;50266;57.446;26.936;2022-09-27T00:29:18;98803.23;;;4.93;100.0
64025;BME280;50266;57.446;26.936;2022-09-27T00:30:17;98801.12;;;4.96;100.0
64025;BME280;50266;57.446;26.936;2022-09-27T00:31:28;98800.42;;;5.0;100.0
64025;BME280;50266;57.446;26.936;2022-09-27T00:32:20;98801.86;;;4.98;100.0
64025;BME280;50266;57.446;26.936;2022-09-27T00:33:20;98800.08;;;4.95;100.0
64025;BME280;50266;57.446;26.936;2022-09-27T00:34:21;98800.56;;;5.02;100.0
64025;BME280;50266;57.446;26.936;2022-09-27T00:35:20;98800.41;;;4.98;100.0
64025;BME280;50266;57.446;26.936;2022-09-27T00:36:20;98797.44;;;4.96;100.0
64025;BME280;50266;57.446;26.936;2022-09-27T00:37:20;98792.71;;;4.97;100.0
64025;BME280;50266;57.446;26.936;2022-09-27T00:38:20;98789.33;;;4.91;100.0
64025;BME280;50266;57.446;26.936;2022-09-27T00:39:20;98790.12;;;4.94;100.0
64025;BME280;50266;57.446;26.936;2022-09-27T00:40:20;98792.58;;;4.95;100.0
64025;BME280;50266;57.446;26.936;2022-09-27T00:41:24;98793.03;;;4.96;100.0
64025;BME280;50266;57.446;26.936;2022-09-27T00:42:21;98790.89;;;4.99;100.0
64025;BME280;50266;57.446;26.936;2022-09-27T00:43:22;98785.99;;;4.98;100.0
64025;BME280;50266;57.446;26.936;2022-09-27T00:45:25;98790.59;;;5.01;100.0
64025;BME280;50266;57.446;26.936;2022-09-27T00:46:44;98785.37;;;5.07;100.0
64025;BME280;50266;57.446;26.936;2022-09-27T00:47:34;98785.75;;;5.02;100.0
64025;BME280;50266;57.446;26.936;2022-09-27T00:48:32;98783.88;;;4.98;100.0
64025;BME280;50266;57.446;26.936;2022-09-27T00:49:33;98783.55;;;5.02;100.0
64025;BME280;50266;57.446;26.936;2022-09-27T00:50:34;98785.67;;;5.09;100.0
64025;BME280;50266;57.446;26.936;2022-09-27T00:51:33;98783.12;;;5.05;100.0
64025;BME280;50266;57.446;26.936;2022-09-27T00:52:42;98782.52;;;5.09;100.0
64025;BME280;50266;57.446;26.936;2022-09-27T00:53:40;98784.7;;;5.02;100.0
64025;BME280;50266;57.446;26.936;2022-09-27T00:54:37;98781.59;;;5.06;100.0
64025;BME280;50266;57.446;26.936;2022-09-27T00:55:39;98778.8;;;5.03;100.0
64025;BME280;50266;57.446;26.936;2022-09-27T00:56:37;98781.98;;;5.04;100.0
64025;BME280;50266;57.446;26.936;2022-09-27T00:57:37;98778.2;;;5.05;100.0
64025;BME280;50266;57.446;26.936;2022-09-27T00:58:42;98780.61;;;5.03;100.0
64025;BME280;50266;57.446;26.936;2022-09-27T00:59:40;98777.39;;;5.02;100.0
64025;BME280;50266;57.446;26.936;2022-09-27T01:00:41;98776.92;;;5.06;100.0
64025;BME280;50266;57.446;26.936;2022-09-27T01:01:40;98780.28;;;5.09;100.0
64025;BME280;50266;57.446;26.936;2022-09-27T01:02:42;98785.69;;;5.05;100.0
64025;BME280;50266;57.446;26.936;2022-09-27T01:03:45;98774.86;;;5.01;100.0
64025;BME280;50266;57.446;26.936;2022-09-27T01:04:44;98781.25;;;4.92;100.0
64025;BME280;50266;57.446;26.936;2022-09-27T01:05:44;98783.94;;;4.93;100.0
64025;BME280;50266;57.446;26.936;2022-09-27T01:06:44;98783.84;;;4.9;100.0
64025;BME280;50266;57.446;26.936;2022-09-27T01:07:44;98783.1;;;4.89;100.0
64025;BME280;50266;57.446;26.936;2022-09-27T01:08:44;98784.94;;;4.86;100.0
64025;BME280;50266;57.446;26.936;2022-09-27T01:09:44;98779.55;;;4.82;100.0
64025;BME280;50266;57.446;26.936;2022-09-27T01:10:54;98782.11;;;4.86;100.0
64025;BME280;50266;57.446;26.936;2022-09-27T01:12:04;98779.22;;;4.85;100.0
64025;BME280;50266;57.446;26.936;2022-09-27T01:16:16;98789.78;;;4.8;100.0
64025;BME280;50266;57.446;26.936;2022-09-27T01:16:58;98787.54;;;4.79;100.0
64025;BME280;50266;57.446;26.936;2022-09-27T01:18:10;98791.82;;;4.76;100.0
64025;BME280;50266;57.446;26.936;2022-09-27T01:22:10;98790.89;;;4.57;100.0
64025;BME280;50266;57.446;26.936;2022-09-27T01:23:23;98790.33;;;4.57;100.0
64025;BME280;50266;57.446;26.936;2022-09-27T01:24:25;98788.35;;;4.54;100.0
64025;BME280;50266;57.446;26.936;2022-09-27T01:26:27;98787.02;;;4.55;100.0
64025;BME280;50266;57.446;26.936;2022-09-27T01:27:41;98789.84;;;4.59;100.0
64025;BME280;50266;57.446;26.936;2022-09-27T01:28:32;98787.09;;;4.55;100.0
64025;BME280;50266;57.446;26.936;2022-09-27T01:29:36;98787.28;;;4.56;100.0
64025;BME280;50266;57.446;26.936;2022-09-27T01:30:39;98788.78;;;4.53;100.0
64025;BME280;50266;57.446;26.936;2022-09-27T01:33:42;98784.22;;;4.49;100.0
64025;BME280;50266;57.446;26.936;2022-09-27T01:34:44;98785.02;;;4.44;100.0
64025;BME280;50266;57.446;26.936;2022-09-27T01:37:06;98782.12;;;4.4;100.0
64025;BME280;50266;57.446;26.936;2022-09-27T01:37:57;98784.57;;;4.39;100.0
64025;BME280;50266;57.446;26.936;2022-09-27T01:39:00;98783.28;;;4.36;100.0
64025;BME280;50266;57.446;26.936;2022-09-27T01:42:12;98785.17;;;4.46;100.0
64025;BME280;50266;57.446;26.936;2022-09-27T01:43:17;98786.77;;;4.46;100.0
64025;BME280;50266;57.446;26.936;2022-09-27T01:45:25;98786.0;;;4.49;100.0
64025;BME280;50266;57.446;26.936;2022-09-27T01:46:22;98787.85;;;4.51;100.0
64025;BME280;50266;57.446;26.936;2022-09-27T01:47:21;98782.88;;;4.47;100.0
64025;BME280;50266;57.446;26.936;2022-09-27T01:48:22;98785.7;;;4.49;100.0
64025;BME280;50266;57.446;26.936;2022-09-27T01:49:31;98786.52;;;4.46;100.0
64025;BME280;50266;57.446;26.936;2022-09-27T01:50:42;98786.73;;;4.44;100.0
64025;BME280;50266;57.446;26.936;2022-09-27T01:51:32;98783.56;;;4.42;100.0
64025;BME280;50266;57.446;26.936;2022-09-27T01:52:34;98785.43;;;4.39;100.0
64025;BME280;50266;57.446;26.936;2022-09-27T01:53:40;98782.85;;;4.37;100.0
64025;BME280;50266;57.446;26.936;2022-09-27T01:54:42;98785.88;;;4.33;100.0
64025;BME280;50266;57.446;26.936;2022-09-27T01:55:40;98781.64;;;4.28;100.0
64025;BME280;50266;57.446;26.936;2022-09-27T01:56:47;98785.36;;;4.24;100.0
64025;BME280;50266;57.446;26.936;2022-09-27T01:57:42;98788.14;;;4.25;100.0
64025;BME280;50266;57.446;26.936;2022-09-27T01:58:45;98786.79;;;4.21;100.0
64025;BME280;50266;57.446;26.936;2022-09-27T02:00:04;98787.23;;;4.2;100.0
64025;BME280;50266;57.446;26.936;2022-09-27T02:00:46;98781.64;;;4.23;100.0
64025;BME280;50266;57.446;26.936;2022-09-27T02:01:46;98783.74;;;4.24;100.0
64025;BME280;50266;57.446;26.936;2022-09-27T02:02:47;98787.67;;;4.25;100.0
64025;BME280;50266;57.446;26.936;2022-09-27T02:03:46;98785.62;;;4.27;100.0
64025;BME280;50266;57.446;26.936;2022-09-27T02:04:45;98784.97;;;4.27;100.0
64025;BME280;50266;57.446;26.936;2022-09-27T02:05:47;98780.78;;;4.2;100.0
64025;BME280;50266;57.446;26.936;2022-09-27T02:06:46;98782.8;;;4.26;100.0
64025;BME280;50266;57.446;26.936;2022-09-27T02:07:47;98787.15;;;4.22;100.0
64025;BME280;50266;57.446;26.936;2022-09-27T02:08:52;98783.0;;;4.23;100.0
64025;BME280;50266;57.446;26.936;2022-09-27T02:09:51;98787.02;;;4.22;100.0
64025;BME280;50266;57.446;26.936;2022-09-27T02:10:50;98785.12;;;4.24;100.0
64025;BME280;50266;57.446;26.936;2022-09-27T02:11:52;98783.21;;;4.25;100.0
64025;BME280;50266;57.446;26.936;2022-09-27T02:12:55;98780.61;;;4.25;100.0
64025;BME280;50266;57.446;26.936;2022-09-27T02:14:02;98784.08;;;4.24;100.0
64025;BME280;50266;57.446;26.936;2022-09-27T02:15:06;98783.72;;;4.24;100.0
64025;BME280;50266;57.446;26.936;2022-09-27T02:16:09;98786.2;;;4.21;100.0
64025;BME280;50266;57.446;26.936;2022-09-27T02:18:04;98786.64;;;4.19;100.0
64025;BME280;50266;57.446;26.936;2022-09-27T02:19:17;98784.41;;;4.19;100.0
64025;BME280;50266;57.446;26.936;2022-09-27T02:20:18;98784.16;;;4.17;100.0
64025;BME280;50266;57.446;26.936;2022-09-27T02:21:10;98782.17;;;4.2;100.0
64025;BME280;50266;57.446;26.936;2022-09-27T02:23:18;98779.2;;;4.21;100.0
64025;BME280;50266;57.446;26.936;2022-09-27T02:24:18;98780.16;;;4.2;100.0
64025;BME280;50266;57.446;26.936;2022-09-27T02:26:23;98786.88;;;4.19;100.0
64025;BME280;50266;57.446;26.936;2022-09-27T02:28:34;98784.8;;;4.1;100.0
64025;BME280;50266;57.446;26.936;2022-09-27T02:29:26;98787.41;;;4.09;100.0
64025;BME280;50266;57.446;26.936;2022-09-27T02:30:24;98787.39;;;4.07;100.0
64025;BME280;50266;57.446;26.936;2022-09-27T02:31:24;98787.03;;;4.08;100.0
64025;BME280;50266;57.446;26.936;2022-09-27T02:32:24;98788.33;;;4.05;100.0
64025;BME280;50266;57.446;26.936;2022-09-27T02:33:35;98782.8;;;4.06;100.0
64025;BME280;50266;57.446;26.936;2022-09-27T02:34:28;98786.69;;;4.09;100.0
64025;BME280;50266;57.446;26.936;2022-09-27T02:35:28;98787.39;;;4.08;100.0
64025;BME280;50266;57.446;26.936;2022-09-27T02:36:28;98786.22;;;4.06;100.0
64025;BME280;50266;57.446;26.936;2022-09-27T02:37:28;98788.23;;;4.06;100.0
64025;BME280;50266;57.446;26.936;2022-09-27T02:38:27;98782.16;;;4.03;100.0
64025;BME280;50266;57.446;26.936;2022-09-27T02:39:27;98781.58;;;4.03;100.0
64025;BME280;50266;57.446;26.936;2022-09-27T02:40:31;98786.42;;;4.0;100.0
64025;BME280;50266;57.446;26.936;2022-09-27T02:41:29;98783.2;;;4.0;100.0
64025;BME280;50266;57.446;26.936;2022-09-27T02:42:29;98783.53;;;4.0;100.0
64025;BME280;50266;57.446;26.936;2022-09-27T02:43:30;98783.39;;;3.97;100.0
64025;BME280;50266;57.446;26.936;2022-09-27T02:44:29;98785.08;;;3.95;100.0
64025;BME280;50266;57.446;26.936;2022-09-27T02:47:56;98786.53;;;3.94;100.0
64025;BME280;50266;57.446;26.936;2022-09-27T02:52:53;98783.33;;;3.93;100.0
64025;BME280;50266;57.446;26.936;2022-09-27T02:57:06;98782.34;;;3.88;100.0
64025;BME280;50266;57.446;26.936;2022-09-27T02:58:04;98784.06;;;3.91;100.0
64025;BME280;50266;57.446;26.936;2022-09-27T02:59:00;98778.81;;;3.9;100.0
64025;BME280;50266;57.446;26.936;2022-09-27T03:00:10;98779.36;;;3.85;100.0
64025;BME280;50266;57.446;26.936;2022-09-27T03:01:08;98781.21;;;3.85;100.0
64025;BME280;50266;57.446;26.936;2022-09-27T03:02:12;98780.2;;;3.83;100.0
64025;BME280;50266;57.446;26.936;2022-09-27T03:03:13;98775.68;;;3.81;100.0
64025;BME280;50266;57.446;26.936;2022-09-27T03:04:15;98779.69;;;3.82;100.0
64025;BME280;50266;57.446;26.936;2022-09-27T03:05:16;98778.95;;;3.79;100.0
64025;BME280;50266;57.446;26.936;2022-09-27T03:06:15;98781.03;;;3.82;100.0
64025;BME280;50266;57.446;26.936;2022-09-27T03:07:13;98779.98;;;3.8;100.0
64025;BME280;50266;57.446;26.936;2022-09-27T03:08:13;98784.26;;;3.8;100.0
64025;BME280;50266;57.446;26.936;2022-09-27T03:09:19;98781.0;;;3.82;100.0
64025;BME280;50266;57.446;26.936;2022-09-27T03:10:18;98782.33;;;3.84;100.0
64025;BME280;50266;57.446;26.936;2022-09-27T03:11:16;98777.37;;;3.79;100.0
64025;BME280;50266;57.446;26.936;2022-09-27T03:12:17;98778.94;;;3.81;100.0
64025;BME280;50266;57.446;26.936;2022-09-27T03:13:16;98784.03;;;3.79;100.0
64025;BME280;50266;57.446;26.936;2022-09-27T03:14:16;98779.19;;;3.78;100.0
64025;BME280;50266;57.446;26.936;2022-09-27T03:15:16;98775.02;;;3.77;100.0
64025;BME280;50266;57.446;26.936;2022-09-27T03:16:16;98777.3;;;3.75;100.0
64025;BME280;50266;57.446;26.936;2022-09-27T03:17:17;98773.8;;;3.72;100.0
64025;BME280;50266;57.446;26.936;2022-09-27T03:18:16;98774.9;;;3.7;100.0
64025;BME280;50266;57.446;26.936;2022-09-27T03:19:16;98772.51;;;3.69;100.0
64025;BME280;50266;57.446;26.936;2022-09-27T03:20:16;98773.06;;;3.68;100.0
64025;BME280;50266;57.446;26.936;2022-09-27T03:21:16;98775.2;;;3.7;100.0
64025;BME280;50266;57.446;26.936;2022-09-27T03:22:17;98773.16;;;3.7;100.0
64025;BME280;50266;57.446;26.936;2022-09-27T03:23:17;98770.37;;;3.7;100.0
64025;BME280;50266;57.446;26.936;2022-09-27T03:24:17;98773.06;;;3.7;100.0
64025;BME280;50266;57.446;26.936;2022-09-27T03:25:17;98770.58;;;3.68;100.0
64025;BME280;50266;57.446;26.936;2022-09-27T03:26:17;98771.88;;;3.7;100.0
64025;BME280;50266;57.446;26.936;2022-09-27T03:27:17;98773.36;;;3.73;100.0
64025;BME280;50266;57.446;26.936;2022-09-27T03:28:17;98774.33;;;3.72;100.0
64025;BME280;50266;57.446;26.936;2022-09-27T03:29:17;98771.22;;;3.69;100.0
64025;BME280;50266;57.446;26.936;2022-09-27T03:30:17;98776.17;;;3.67;100.0
64025;BME280;50266;57.446;26.936;2022-09-27T03:31:17;98775.03;;;3.64;100.0
64025;BME280;50266;57.446;26.936;2022-09-27T03:32:17;98774.98;;;3.62;100.0
64025;BME280;50266;57.446;26.936;2022-09-27T03:33:17;98776.47;;;3.6;100.0
64025;BME280;50266;57.446;26.936;2022-09-27T03:34:17;98774.64;;;3.59;100.0
64025;BME280;50266;57.446;26.936;2022-09-27T03:35:17;98776.0;;;3.55;100.0
64025;BME280;50266;57.446;26.936;2022-09-27T03:36:17;98779.62;;;3.54;100.0
64025;BME280;50266;57.446;26.936;2022-09-27T03:37:17;98782.61;;;3.55;100.0
64025;BME280;50266;57.446;26.936;2022-09-27T03:38:17;98779.85;;;3.54;100.0
64025;BME280;50266;57.446;26.936;2022-09-27T03:39:17;98778.09;;;3.53;100.0
64025;BME280;50266;57.446;26.936;2022-09-27T03:40:17;98781.02;;;3.51;100.0
64025;BME280;50266;57.446;26.936;2022-09-27T03:41:17;98780.12;;;3.52;100.0
64025;BME280;50266;57.446;26.936;2022-09-27T03:42:17;98783.58;;;3.52;100.0
64025;BME280;50266;57.446;26.936;2022-09-27T03:43:17;98783.55;;;3.51;100.0
64025;BME280;50266;57.446;26.936;2022-09-27T03:44:17;98787.62;;;3.51;100.0
64025;BME280;50266;57.446;26.936;2022-09-27T03:45:17;98788.68;;;3.54;100.0
64025;BME280;50266;57.446;26.936;2022-09-27T03:46:17;98788.09;;;3.54;100.0
64025;BME280;50266;57.446;26.936;2022-09-27T03:47:17;98787.6;;;3.54;100.0
64025;BME280;50266;57.446;26.936;2022-09-27T03:48:17;98784.34;;;3.55;100.0
64025;BME280;50266;57.446;26.936;2022-09-27T03:49:17;98787.77;;;3.53;100.0
64025;BME280;50266;57.446;26.936;2022-09-27T03:50:17;98787.73;;;3.59;100.0
64025;BME280;50266;57.446;26.936;2022-09-27T03:51:17;98787.04;;;3.55;100.0
64025;BME280;50266;57.446;26.936;2022-09-27T03:52:17;98788.28;;;3.55;100.0
64025;BME280;50266;57.446;26.936;2022-09-27T03:53:17;98788.66;;;3.58;100.0
64025;BME280;50266;57.446;26.936;2022-09-27T03:54:17;98784.48;;;3.59;100.0
64025;BME280;50266;57.446;26.936;2022-09-27T03:55:17;98789.13;;;3.57;100.0
64025;BME280;50266;57.446;26.936;2022-09-27T03:56:17;98787.62;;;3.57;100.0
64025;BME280;50266;57.446;26.936;2022-09-27T03:57:17;98788.16;;;3.55;100.0
64025;BME280;50266;57.446;26.936;2022-09-27T03:58:17;98790.0;;;3.53;100.0
64025;BME280;50266;57.446;26.936;2022-09-27T03:59:17;98790.92;;;3.54;100.0
64025;BME280;50266;57.446;26.936;2022-09-27T04:00:17;98792.17;;;3.52;100.0
64025;BME280;50266;57.446;26.936;2022-09-27T04:01:17;98794.38;;;3.52;100.0
64025;BME280;50266;57.446;26.936;2022-09-27T04:02:17;98794.05;;;3.53;100.0
64025;BME280;50266;57.446;26.936;2022-09-27T04:03:17;98794.34;;;3.53;100.0
64025;BME280;50266;57.446;26.936;2022-09-27T04:04:17;98796.66;;;3.5;100.0
64025;BME280;50266;57.446;26.936;2022-09-27T04:05:17;98797.48;;;3.49;100.0
64025;BME280;50266;57.446;26.936;2022-09-27T04:06:17;98799.27;;;3.51;100.0
64025;BME280;50266;57.446;26.936;2022-09-27T04:07:17;98795.88;;;3.49;100.0
64025;BME280;50266;57.446;26.936;2022-09-27T04:08:17;98795.05;;;3.48;100.0
64025;BME280;50266;57.446;26.936;2022-09-27T04:09:17;98795.07;;;3.51;100.0
64025;BME280;50266;57.446;26.936;2022-09-27T04:10:17;98796.28;;;3.52;100.0
64025;BME280;50266;57.446;26.936;2022-09-27T04:11:17;98794.7;;;3.48;100.0
64025;BME280;50266;57.446;26.936;2022-09-27T04:12:17;98792.11;;;3.47;100.0
64025;BME280;50266;57.446;26.936;2022-09-27T04:13:17;98796.17;;;3.48;100.0
64025;BME280;50266;57.446;26.936;2022-09-27T04:14:17;98793.06;;;3.46;100.0
64025;BME280;50266;57.446;26.936;2022-09-27T04:15:17;98792.89;;;3.48;100.0
64025;BME280;50266;57.446;26.936;2022-09-27T04:16:17;98796.41;;;3.47;100.0
64025;BME280;50266;57.446;26.936;2022-09-27T04:17:17;98793.49;;;3.45;100.0
64025;BME280;50266;57.446;26.936;2022-09-27T04:18:17;98790.55;;;3.44;100.0
64025;BME280;50266;57.446;26.936;2022-09-27T04:19:17;98795.07;;;3.44;100.0
64025;BME280;50266;57.446;26.936;2022-09-27T04:20:17;98793.08;;;3.41;100.0
64025;BME280;50266;57.446;26.936;2022-09-27T04:21:17;98800.14;;;3.42;100.0
64025;BME280;50266;57.446;26.936;2022-09-27T04:22:17;98792.98;;;3.43;100.0
64025;BME280;50266;57.446;26.936;2022-09-27T04:23:17;98792.71;;;3.43;100.0
64025;BME280;50266;57.446;26.936;2022-09-27T04:24:17;98794.8;;;3.47;100.0
64025;BME280;50266;57.446;26.936;2022-09-27T04:25:17;98794.16;;;3.44;100.0
64025;BME280;50266;57.446;26.936;2022-09-27T04:26:17;98793.42;;;3.45;100.0
64025;BME280;50266;57.446;26.936;2022-09-27T04:27:17;98796.11;;;3.47;100.0
64025;BME280;50266;57.446;26.936;2022-09-27T04:28:17;98795.77;;;3.45;100.0
64025;BME280;50266;57.446;26.936;2022-09-27T04:29:17;98795.17;;;3.44;100.0
64025;BME280;50266;57.446;26.936;2022-09-27T04:30:17;98797.23;;;3.45;100.0
64025;BME280;50266;57.446;26.936;2022-09-27T04:31:18;98798.77;;;3.48;100.0
64025;BME280;50266;57.446;26.936;2022-09-27T04:32:17;98796.11;;;3.48;100.0
64025;BME280;50266;57.446;26.936;2022-09-27T04:33:17;98798.88;;;3.46;100.0
64025;BME280;50266;57.446;26.936;2022-09-27T04:34:17;98795.36;;;3.46;100.0
64025;BME280;50266;57.446;26.936;2022-09-27T04:35:17;98797.25;;;3.42;100.0
64025;BME280;50266;57.446;26.936;2022-09-27T04:36:18;98798.59;;;3.44;100.0
64025;BME280;50266;57.446;26.936;2022-09-27T04:37:17;98797.75;;;3.48;100.0
64025;BME280;50266;57.446;26.936;2022-09-27T04:38:17;98796.78;;;3.51;100.0
64025;BME280;50266;57.446;26.936;2022-09-27T04:39:17;98793.59;;;3.51;100.0
64025;BME280;50266;57.446;26.936;2022-09-27T04:40:17;98795.84;;;3.54;100.0
64025;BME280;50266;57.446;26.936;2022-09-27T04:41:18;98795.63;;;3.51;100.0
64025;BME280;50266;57.446;26.936;2022-09-27T04:42:18;98794.75;;;3.51;100.0
64025;BME280;50266;57.446;26.936;2022-09-27T04:43:17;98795.39;;;3.54;100.0
64025;BME280;50266;57.446;26.936;2022-09-27T04:44:18;98795.09;;;3.53;100.0
64025;BME280;50266;57.446;26.936;2022-09-27T04:45:18;98799.22;;;3.56;100.0
64025;BME280;50266;57.446;26.936;2022-09-27T04:46:18;98794.2;;;3.59;100.0
64025;BME280;50266;57.446;26.936;2022-09-27T04:47:18;98797.53;;;3.58;100.0
64025;BME280;50266;57.446;26.936;2022-09-27T04:48:18;98797.58;;;3.61;100.0
64025;BME280;50266;57.446;26.936;2022-09-27T04:49:18;98799.16;;;3.6;100.0
64025;BME280;50266;57.446;26.936;2022-09-27T04:50:18;98795.94;;;3.62;100.0
64025;BME280;50266;57.446;26.936;2022-09-27T04:51:18;98795.28;;;3.61;100.0
64025;BME280;50266;57.446;26.936;2022-09-27T04:52:18;98800.05;;;3.61;100.0
64025;BME280;50266;57.446;26.936;2022-09-27T04:53:18;98801.77;;;3.63;100.0
64025;BME280;50266;57.446;26.936;2022-09-27T04:54:18;98793.84;;;3.61;100.0
64025;BME280;50266;57.446;26.936;2022-09-27T04:55:18;98802.28;;;3.61;100.0
64025;BME280;50266;57.446;26.936;2022-09-27T04:56:18;98800.57;;;3.67;100.0
64025;BME280;50266;57.446;26.936;2022-09-27T04:57:18;98797.12;;;3.67;100.0
64025;BME280;50266;57.446;26.936;2022-09-27T04:58:18;98797.23;;;3.69;100.0
64025;BME280;50266;57.446;26.936;2022-09-27T04:59:18;98794.3;;;3.68;100.0
64025;BME280;50266;57.446;26.936;2022-09-27T05:00:18;98797.34;;;3.69;100.0
64025;BME280;50266;57.446;26.936;2022-09-27T05:01:18;98799.45;;;3.69;100.0
64025;BME280;50266;57.446;26.936;2022-09-27T05:02:18;98799.17;;;3.7;100.0
64025;BME280;50266;57.446;26.936;2022-09-27T05:03:18;98796.75;;;3.69;100.0
64025;BME280;50266;57.446;26.936;2022-09-27T05:04:18;98798.36;;;3.74;100.0
64025;BME280;50266;57.446;26.936;2022-09-27T05:05:18;98795.5;;;3.7;100.0
64025;BME280;50266;57.446;26.936;2022-09-27T05:06:18;98796.04;;;3.72;100.0
64025;BME280;50266;57.446;26.936;2022-09-27T05:07:18;98797.3;;;3.7;100.0
64025;BME280;50266;57.446;26.936;2022-09-27T05:08:18;98798.92;;;3.68;100.0
64025;BME280;50266;57.446;26.936;2022-09-27T05:09:18;98798.92;;;3.68;100.0
64025;BME280;50266;57.446;26.936;2022-09-27T05:10:18;98802.12;;;3.71;100.0
64025;BME280;50266;57.446;26.936;2022-09-27T05:11:18;98804.4;;;3.75;100.0
64025;BME280;50266;57.446;26.936;2022-09-27T05:12:18;98802.61;;;3.77;100.0
64025;BME280;50266;57.446;26.936;2022-09-27T05:13:18;98801.12;;;3.78;100.0
64025;BME280;50266;57.446;26.936;2022-09-27T05:14:18;98799.94;;;3.8;100.0
64025;BME280;50266;57.446;26.936;2022-09-27T05:15:18;98804.83;;;3.85;100.0
64025;BME280;50266;57.446;26.936;2022-09-27T05:16:18;98804.14;;;3.89;100.0
64025;BME280;50266;57.446;26.936;2022-09-27T05:17:18;98802.06;;;3.86;100.0
64025;BME280;50266;57.446;26.936;2022-09-27T05:18:18;98805.47;;;3.88;100.0
64025;BME280;50266;57.446;26.936;2022-09-27T05:19:18;98803.48;;;3.89;100.0
64025;BME280;50266;57.446;26.936;2022-09-27T05:20:18;98803.75;;;3.94;100.0
64025;BME280;50266;57.446;26.936;2022-09-27T05:21:18;98804.38;;;3.93;100.0
64025;BME280;50266;57.446;26.936;2022-09-27T05:22:18;98803.93;;;3.92;100.0
64025;BME280;50266;57.446;26.936;2022-09-27T05:23:18;98804.38;;;3.93;100.0
64025;BME280;50266;57.446;26.936;2022-09-27T05:24:18;98806.72;;;3.94;100.0
64025;BME280;50266;57.446;26.936;2022-09-27T05:25:18;98807.23;;;3.96;100.0
64025;BME280;50266;57.446;26.936;2022-09-27T05:26:18;98803.52;;;3.94;100.0
64025;BME280;50266;57.446;26.936;2022-09-27T05:27:18;98806.95;;;3.97;100.0
64025;BME280;50266;57.446;26.936;2022-09-27T05:28:18;98808.83;;;3.97;100.0
64025;BME280;50266;57.446;26.936;2022-09-27T05:29:19;98804.07;;;4.01;100.0
64025;BME280;50266;57.446;26.936;2022-09-27T05:30:19;98805.06;;;4.0;100.0
64025;BME280;50266;57.446;26.936;2022-09-27T05:31:19;98806.27;;;4.02;100.0
64025;BME280;50266;57.446;26.936;2022-09-27T05:32:19;98806.42;;;3.98;100.0
64025;BME280;50266;57.446;26.936;2022-09-27T05:33:19;98808.42;;;4.03;100.0
64025;BME280;50266;57.446;26.936;2022-09-27T05:34:19;98805.41;;;4.03;100.0
64025;BME280;50266;57.446;26.936;2022-09-27T05:35:19;98803.05;;;4.01;100.0
64025;BME280;50266;57.446;26.936;2022-09-27T05:36:19;98810.94;;;4.06;100.0
64025;BME280;50266;57.446;26.936;2022-09-27T05:37:19;98805.95;;;4.05;100.0
64025;BME280;50266;57.446;26.936;2022-09-27T05:38:19;98809.55;;;4.12;100.0
64025;BME280;50266;57.446;26.936;2022-09-27T05:39:19;98809.75;;;4.11;100.0
64025;BME280;50266;57.446;26.936;2022-09-27T05:40:19;98807.53;;;4.13;100.0
64025;BME280;50266;57.446;26.936;2022-09-27T05:41:20;98809.23;;;4.14;100.0
64025;BME280;50266;57.446;26.936;2022-09-27T05:42:20;98809.47;;;4.13;100.0
64025;BME280;50266;57.446;26.936;2022-09-27T05:43:20;98815.05;;;4.2;100.0
64025;BME280;50266;57.446;26.936;2022-09-27T05:44:20;98813.39;;;4.25;100.0
64025;BME280;50266;57.446;26.936;2022-09-27T05:45:21;98816.77;;;4.27;100.0
64025;BME280;50266;57.446;26.936;2022-09-27T05:46:20;98814.98;;;4.27;100.0
64025;BME280;50266;57.446;26.936;2022-09-27T05:47:20;98820.41;;;4.27;100.0
64025;BME280;50266;57.446;26.936;2022-09-27T05:48:20;98816.55;;;4.3;100.0
64025;BME280;50266;57.446;26.936;2022-09-27T05:49:20;98813.98;;;4.38;100.0